createdAt,value
2023-04-06T00:02:33.197Z,3.38
2023-04-06T00:06:36.690Z,3.00
2023-04-06T00:10:40.053Z,3.65
2023-04-06T00:14:44.814Z,2.70
2023-04-06T00:18:48.369Z,2.80
2023-04-06T00:22:51.673Z,2.47
2023-04-06T00:26:55.428Z,3.33
2023-04-06T00:31:00.860Z,2.85
2023-04-06T00:35:05.516Z,3.00
2023-04-06T00:39:08.892Z,3.75
2023-04-06T00:43:13.985Z,3.45
2023-04-06T00:47:19.134Z,2.90
2023-04-06T00:51:23.053Z,3.60
2023-04-06T00:55:26.229Z,2.95
2023-04-06T00:59:32.479Z,3.50
2023-04-06T01:03:37.378Z,3.00
2023-04-06T01:07:41.166Z,3.15
2023-04-06T01:11:44.534Z,3.13
2023-04-06T01:15:49.539Z,3.42
2023-04-06T01:19:54.943Z,4.95
2023-04-06T01:28:21.463Z,3.10
2023-04-06T01:32:25.054Z,2.97
2023-04-06T01:36:28.446Z,3.97
2023-04-06T01:40:33.643Z,3.42
2023-04-06T01:44:36.893Z,2.88
2023-04-06T01:48:40.193Z,3.10
2023-04-06T01:52:43.377Z,3.60
2023-04-06T01:56:52.317Z,3.78
2023-04-06T02:00:56.465Z,3.22
2023-04-06T02:04:59.846Z,3.33
2023-04-06T02:09:02.937Z,3.55
2023-04-06T02:13:07.397Z,3.75
2023-04-06T02:17:10.831Z,4.10
2023-04-06T02:21:14.465Z,4.20
2023-04-06T02:25:18.204Z,3.38
2023-04-06T02:29:24.018Z,4.20
2023-04-06T02:33:27.186Z,2.25
2023-04-06T02:37:31.294Z,3.20
2023-04-06T02:41:34.661Z,2.42
2023-04-06T02:45:39.759Z,2.70
2023-04-06T02:49:43.266Z,4.15
2023-04-06T02:53:46.968Z,2.80
2023-04-06T02:57:50.372Z,2.78
2023-04-06T03:01:55.912Z,3.03
2023-04-06T03:06:00.626Z,4.90
2023-04-06T03:10:04.332Z,4.30
2023-04-06T03:14:07.538Z,3.75
2023-04-06T03:18:12.485Z,2.25
2023-04-06T03:22:15.458Z,2.65
2023-04-06T03:26:19.100Z,2.97
2023-04-06T03:30:22.470Z,3.60
2023-04-06T03:34:27.823Z,3.13
2023-04-06T03:38:31.100Z,2.70
2023-04-06T03:42:34.937Z,2.65
2023-04-06T03:46:38.194Z,3.05
2023-04-06T03:50:43.561Z,2.70
2023-04-06T03:54:46.799Z,2.80
2023-04-06T03:58:52.787Z,3.67
2023-04-06T04:02:56.676Z,3.05
2023-04-06T04:07:01.510Z,2.90
2023-04-06T04:11:04.707Z,3.88
2023-04-06T04:15:08.902Z,3.63
2023-04-06T04:19:12.171Z,3.58
2023-04-06T04:23:17.315Z,3.63
2023-04-06T04:27:20.914Z,2.60
2023-04-06T04:31:24.348Z,3.58
2023-04-06T04:35:27.584Z,4.20
2023-04-06T04:39:33.227Z,3.15
2023-04-06T04:43:36.476Z,3.40
2023-04-06T04:47:40.050Z,2.92
2023-04-06T04:51:43.382Z,2.40
2023-04-06T04:55:48.647Z,3.63
2023-04-06T04:59:52.155Z,3.90
2023-04-06T05:03:56.677Z,3.55
2023-04-06T05:08:00.202Z,3.70
2023-04-06T05:12:05.704Z,4.03
2023-04-06T05:16:09.116Z,3.55
2023-04-06T05:20:13.727Z,3.67
2023-04-06T05:24:17.339Z,4.30
2023-04-06T05:28:22.538Z,4.05
2023-04-06T05:32:26.117Z,3.47
2023-04-06T05:36:29.612Z,4.55
2023-04-06T05:40:32.814Z,3.88
2023-04-06T05:44:39.756Z,5.00
2023-04-06T05:48:43.045Z,3.50
2023-04-06T05:52:47.798Z,4.00
2023-04-06T05:56:51.070Z,3.83
2023-04-06T06:00:59.568Z,4.13
2023-04-06T06:05:03.521Z,4.18
2023-04-06T06:09:07.395Z,4.35
2023-04-06T06:13:11.326Z,4.60
2023-04-06T06:17:16.701Z,3.03
2023-04-06T06:21:19.934Z,4.65
2023-04-06T06:25:25.929Z,4.80
2023-04-06T06:29:29.437Z,4.30
2023-04-06T06:33:34.613Z,4.93
2023-04-06T06:37:37.725Z,4.47
2023-04-06T06:41:41.925Z,4.80
2023-04-06T06:45:45.368Z,3.42
2023-04-06T06:49:50.540Z,4.07
2023-04-06T06:53:53.586Z,3.97
2023-04-06T06:57:57.474Z,4.30
2023-04-06T07:02:00.859Z,4.35
2023-04-06T07:06:06.437Z,3.72
2023-04-06T07:10:11.311Z,4.00
2023-04-06T07:14:15.273Z,5.43
2023-04-06T07:18:18.762Z,4.32
2023-04-06T07:22:24.156Z,4.13
2023-04-06T07:26:27.575Z,3.25
2023-04-06T07:30:32.144Z,4.45
2023-04-06T07:34:35.950Z,5.10
2023-04-06T07:38:45.008Z,3.88
2023-04-06T07:42:48.687Z,3.47
2023-04-06T07:46:52.528Z,3.85
2023-04-06T07:51:03.788Z,4.05
2023-04-06T07:55:10.655Z,3.97
2023-04-06T07:59:14.867Z,3.55
2023-04-06T08:03:18.474Z,4.47
2023-04-06T08:07:21.988Z,4.32
2023-04-06T08:11:28.100Z,3.08
2023-04-06T08:15:31.578Z,3.70
2023-04-06T08:19:38.556Z,3.85
2023-04-06T08:23:42.089Z,3.60
2023-04-06T08:27:46.793Z,2.83
2023-04-06T08:31:50.466Z,3.45
2023-04-06T08:35:54.200Z,3.13
2023-04-06T08:40:00.196Z,3.97
2023-04-06T08:44:06.387Z,2.63
2023-04-06T08:48:10.744Z,2.75
2023-04-06T08:52:14.744Z,2.80
2023-04-06T08:56:18.536Z,3.08
2023-04-06T09:00:23.930Z,2.67
2023-04-06T09:04:29.186Z,3.28
2023-04-06T09:08:32.736Z,2.67
2023-04-06T09:12:37.407Z,3.33
2023-04-06T09:16:47.825Z,3.03
2023-04-06T09:20:59.779Z,2.85
2023-04-06T09:25:04.348Z,2.72
2023-04-06T09:29:07.818Z,2.88
2023-04-06T09:33:12.847Z,2.28
2023-04-06T09:37:16.760Z,2.90
2023-04-06T09:41:24.631Z,2.45
2023-04-06T09:45:32.103Z,2.03
2023-04-06T09:49:37.982Z,1.98
2023-04-06T09:53:44.746Z,2.45
2023-04-06T09:57:54.071Z,2.45
2023-04-06T10:02:01.030Z,1.75
2023-04-06T10:06:08.835Z,3.05
2023-04-06T10:10:14.124Z,2.65
2023-04-06T10:14:18.673Z,2.53
2023-04-06T10:18:22.632Z,2.95
2023-04-06T10:22:35.721Z,3.40
2023-04-06T10:26:39.646Z,1.98
2023-04-06T10:30:46.451Z,3.25
2023-04-06T10:34:49.796Z,2.80
2023-04-06T10:39:00.468Z,2.53
2023-04-06T10:43:10.892Z,3.00
2023-04-06T10:47:21.303Z,2.95
2023-04-06T10:51:29.260Z,2.63
2023-04-06T10:55:35.251Z,3.42
2023-04-06T10:59:38.561Z,3.08
2023-04-06T11:03:48.527Z,2.60
2023-04-06T11:07:52.157Z,2.63
2023-04-06T11:11:58.487Z,2.85
2023-04-06T11:16:01.675Z,3.55
2023-04-06T11:20:08.101Z,3.13
2023-04-06T11:24:13.411Z,3.70
2023-04-06T11:28:18.581Z,3.72
2023-04-06T11:32:25.765Z,2.80
2023-04-06T11:36:31.438Z,2.63
2023-04-06T11:40:34.933Z,3.65
2023-04-06T11:44:41.602Z,2.35
2023-04-06T11:48:47.891Z,2.97
2023-04-06T11:53:01.707Z,3.33
2023-04-06T11:57:06.138Z,3.28
2023-04-06T12:01:11.706Z,3.03
2023-04-06T12:05:15.425Z,3.00
2023-04-06T12:09:20.700Z,3.45
2023-04-06T12:13:23.891Z,3.28
2023-04-06T12:17:29.259Z,2.65
2023-04-06T12:21:33.558Z,2.95
2023-04-06T12:25:38.085Z,2.97
2023-04-06T12:29:41.447Z,3.20
2023-04-06T12:33:49.053Z,3.35
2023-04-06T12:37:52.529Z,2.75
2023-04-06T12:41:56.844Z,2.58
2023-04-06T12:46:00.838Z,2.65
2023-04-06T12:50:08.100Z,2.53
2023-04-06T12:54:12.364Z,2.88
2023-04-06T12:58:16.528Z,2.60
2023-04-06T13:02:21.717Z,2.17
2023-04-06T13:06:28.902Z,2.33
2023-04-06T13:10:32.380Z,2.00
2023-04-06T13:14:36.015Z,2.67
2023-04-06T13:18:40.200Z,2.90
2023-04-06T13:22:45.577Z,2.58
2023-04-06T13:26:48.980Z,2.92
2023-04-06T13:35:09.716Z,2.97
2023-04-06T13:39:13.075Z,2.58
2023-04-06T13:43:16.627Z,2.30
2023-04-06T13:47:20.078Z,2.33
2023-04-06T13:51:24.636Z,2.15
2023-04-06T13:55:27.673Z,2.50
2023-04-06T13:59:35.256Z,2.15
2023-04-06T14:03:38.498Z,2.05
2023-04-06T14:07:43.326Z,2.33
2023-04-06T14:11:46.327Z,2.65
2023-04-06T14:15:50.130Z,2.05
2023-04-06T14:19:54.350Z,1.67
2023-04-06T14:23:59.948Z,1.58
2023-04-06T14:28:03.676Z,1.50
2023-04-06T14:32:08.115Z,1.73
2023-04-06T14:36:12.217Z,1.65
2023-04-06T14:40:17.449Z,2.20
2023-04-06T14:44:20.838Z,2.35
2023-04-06T14:48:24.991Z,2.28
2023-04-06T14:52:29.959Z,1.25
2023-04-06T14:56:37.039Z,2.55
2023-04-06T15:00:40.911Z,2.63
2023-04-06T15:04:45.336Z,2.55
2023-04-06T15:08:49.022Z,2.80
2023-04-06T15:12:54.030Z,2.03
2023-04-06T15:16:57.401Z,2.60
2023-04-06T15:21:01.020Z,2.83
2023-04-06T15:25:04.383Z,2.20
2023-04-06T15:29:09.300Z,2.53
2023-04-06T15:33:12.855Z,2.15
2023-04-06T15:37:16.791Z,2.38
2023-04-06T15:41:19.982Z,2.95
2023-04-06T15:45:25.328Z,2.58
2023-04-06T15:49:29.335Z,2.58
2023-04-06T15:53:32.488Z,2.53
2023-04-06T15:57:35.932Z,2.25
2023-04-06T16:01:42.946Z,2.58
2023-04-06T16:05:53.865Z,2.60
2023-04-06T16:10:03.266Z,2.40
2023-04-06T16:14:06.580Z,2.40
2023-04-06T16:18:11.847Z,2.47
2023-04-06T16:22:16.784Z,2.45
2023-04-06T16:26:20.438Z,3.22
2023-04-06T16:30:24.971Z,3.00
2023-04-06T16:34:34.288Z,3.30
2023-04-06T16:38:37.656Z,2.80
2023-04-06T16:42:41.760Z,2.47
2023-04-06T16:46:45.477Z,2.85
2023-04-06T16:50:50.539Z,2.72
2023-04-06T16:54:54.265Z,2.45
2023-04-06T16:58:57.792Z,2.67
2023-04-06T17:07:19.674Z,2.65
2023-04-06T17:11:28.489Z,2.20
2023-04-06T17:15:32.537Z,2.78
2023-04-06T17:19:35.578Z,3.05
2023-04-06T17:23:40.689Z,2.85
2023-04-06T17:27:43.932Z,2.92
2023-04-06T17:31:47.636Z,2.55
2023-04-06T17:35:50.804Z,2.42
2023-04-06T17:39:55.439Z,3.33
2023-04-06T17:43:58.318Z,1.88
2023-04-06T17:48:01.475Z,2.80
2023-04-06T17:52:04.491Z,2.35
2023-04-06T17:56:09.256Z,3.10
2023-04-06T18:00:13.838Z,3.67
2023-04-06T18:04:17.835Z,2.53
2023-04-06T18:08:22.498Z,3.10
2023-04-06T18:12:27.458Z,3.45
2023-04-06T18:16:30.648Z,2.55
2023-04-06T18:20:34.556Z,3.20
2023-04-06T18:24:42.361Z,2.85
2023-04-06T18:28:48.531Z,3.45
2023-04-06T18:32:52.997Z,3.15
2023-04-06T18:36:56.811Z,2.40
2023-04-06T18:41:00.010Z,3.80
2023-04-06T18:45:05.246Z,3.65
2023-04-06T18:49:08.870Z,3.08
2023-04-06T18:53:12.648Z,3.50
2023-04-06T18:57:17.291Z,2.50
2023-04-06T19:01:30.094Z,2.75
2023-04-06T19:09:36.404Z,3.10
2023-04-06T19:13:39.512Z,3.00
2023-04-06T19:17:44.633Z,3.15
2023-04-06T19:21:48.432Z,2.88
2023-04-06T19:25:54.334Z,3.00
2023-04-06T19:29:59.400Z,4.15
2023-04-06T19:34:04.773Z,3.08
2023-04-06T19:38:07.956Z,2.97
2023-04-06T19:42:11.250Z,3.25
2023-04-06T19:46:15.567Z,2.67
2023-04-06T19:50:20.587Z,3.40
2023-04-06T19:54:23.713Z,3.25
2023-04-06T20:02:47.641Z,2.90
2023-04-06T20:06:52.249Z,4.32
2023-04-06T20:11:03.344Z,4.35
2023-04-06T20:15:06.979Z,3.80
2023-04-06T20:19:10.773Z,3.70
2023-04-06T20:23:15.550Z,3.85
2023-04-06T20:27:19.133Z,2.90
2023-04-06T20:31:21.979Z,2.92
2023-04-06T20:35:25.291Z,3.67
2023-04-06T20:39:29.766Z,3.22
2023-04-06T20:43:33.499Z,4.20
2023-04-06T20:47:36.776Z,3.53
2023-04-06T20:51:39.828Z,4.40
2023-04-06T20:55:44.259Z,4.00
2023-04-06T20:59:47.974Z,3.75
2023-04-06T21:03:51.110Z,4.47
2023-04-06T21:07:54.994Z,4.68
2023-04-06T21:11:59.377Z,4.40
2023-04-06T21:16:03.293Z,4.15
2023-04-06T21:20:07.274Z,3.95
2023-04-06T21:24:12.098Z,3.78
2023-04-06T21:28:16.391Z,4.38
2023-04-06T21:32:19.682Z,4.40
2023-04-06T21:36:22.680Z,4.10
2023-04-06T21:40:26.299Z,4.28
2023-04-06T21:44:30.875Z,4.20
2023-04-06T21:48:34.629Z,4.35
2023-04-06T21:52:37.575Z,4.85
2023-04-06T21:56:40.964Z,4.13
2023-04-06T22:00:46.349Z,4.10
2023-04-06T22:04:50.051Z,4.28
2023-04-06T22:08:53.432Z,4.60
2023-04-06T22:12:57.054Z,4.50
2023-04-06T22:17:01.376Z,4.28
2023-04-06T22:21:05.267Z,4.97
2023-04-06T22:25:09.326Z,5.20
2023-04-06T22:29:13.012Z,3.38
2023-04-06T22:33:17.437Z,4.30
2023-04-06T22:37:20.839Z,4.20
2023-04-06T22:41:24.016Z,4.30
2023-04-06T22:45:28.278Z,4.10
2023-04-06T22:49:32.795Z,5.03
2023-04-06T22:53:36.196Z,4.45
2023-04-06T22:57:39.107Z,4.75
2023-04-06T23:01:42.875Z,6.05
2023-04-06T23:05:47.813Z,5.85
2023-04-06T23:09:51.323Z,5.55
2023-04-06T23:13:54.309Z,6.20
2023-04-06T23:17:57.536Z,5.07
2023-04-06T23:22:02.381Z,6.25
2023-04-06T23:26:06.689Z,5.03
2023-04-06T23:30:10.802Z,4.65
2023-04-06T23:34:14.418Z,4.32
2023-04-06T23:38:19.348Z,5.30
2023-04-06T23:42:22.498Z,5.10
2023-04-06T23:46:32.516Z,4.85
2023-04-06T23:50:36.647Z,4.60
2023-04-06T23:54:41.245Z,5.30
2023-04-06T23:58:44.558Z,4.70
